createdAt,value
2018-02-15T00:00:12.151Z,0.20
2018-02-15T00:02:39.649Z,0.17
2018-02-15T00:05:07.146Z,0.16
2018-02-15T00:07:34.640Z,0.11
2018-02-15T00:10:02.144Z,0.14
2018-02-15T00:12:29.638Z,0.03
2018-02-15T00:14:57.143Z,0.07
2018-02-15T00:17:24.630Z,0.07
2018-02-15T00:19:52.343Z,0.06
2018-02-15T00:22:19.874Z,0.11
2018-02-15T00:24:47.374Z,0.09
2018-02-15T00:27:14.880Z,0.04
2018-02-15T00:29:42.397Z,0.06
2018-02-15T00:32:09.888Z,-0.02
2018-02-15T00:34:37.367Z,-0.03
2018-02-15T00:37:04.877Z,0.04
2018-02-15T00:39:32.382Z,0.12
2018-02-15T00:41:59.890Z,0.11
2018-02-15T00:44:27.369Z,0.08
2018-02-15T00:46:54.862Z,0.05
2018-02-15T00:49:22.358Z,0.03
2018-02-15T00:51:49.852Z,0.12
2018-02-15T00:54:17.335Z,0.15
2018-02-15T00:56:44.844Z,0.10
2018-02-15T00:59:12.322Z,0.12
2018-02-15T01:01:39.804Z,0.10
2018-02-15T01:04:07.302Z,0.09
2018-02-15T01:06:34.788Z,0.14
2018-02-15T01:09:02.305Z,0.17
2018-02-15T01:11:29.793Z,0.09
2018-02-15T01:13:57.292Z,0.04
2018-02-15T01:16:26.789Z,0.07
2018-02-15T01:18:54.283Z,0.09
2018-02-15T01:21:21.764Z,0.12
2018-02-15T01:23:49.264Z,-0.01
2018-02-15T01:26:16.768Z,-0.01
2018-02-15T01:28:44.264Z,0.03
2018-02-15T01:31:11.736Z,-0.02
2018-02-15T01:33:39.237Z,-0.02
2018-02-15T01:36:06.724Z,-0.06
2018-02-15T01:38:34.226Z,-0.04
2018-02-15T01:43:35.429Z,-0.04
2018-02-15T01:46:02.901Z,-0.02
2018-02-15T01:48:30.376Z,-0.03
2018-02-15T01:50:57.885Z,-0.01
2018-02-15T01:53:25.380Z,0.01
2018-02-15T01:55:52.876Z,-0.02
2018-02-15T01:58:20.369Z,0.04
2018-02-15T02:00:47.876Z,0.03
2018-02-15T02:03:15.385Z,0.02
2018-02-15T02:05:42.874Z,0.06
2018-02-15T02:08:10.366Z,0.06
2018-02-15T02:10:37.837Z,0.05
2018-02-15T02:13:05.326Z,0.04
2018-02-15T02:15:32.840Z,0.02
2018-02-15T02:18:00.329Z,-0.01
2018-02-15T02:20:27.821Z,-0.02
2018-02-15T02:22:55.425Z,-0.03
2018-02-15T02:25:22.904Z,-0.01
2018-02-15T02:27:50.402Z,-0.03
2018-02-15T02:30:18.324Z,-0.04
2018-02-15T02:32:46.794Z,-0.05
2018-02-15T02:35:14.293Z,-0.05
2018-02-15T02:37:41.806Z,-0.07
2018-02-15T02:40:09.299Z,-0.07
2018-02-15T02:42:36.796Z,-0.09
2018-02-15T02:45:04.309Z,-0.10
2018-02-15T02:47:31.796Z,-0.12
2018-02-15T02:49:59.308Z,-0.13
2018-02-15T02:52:26.794Z,-0.13
2018-02-15T02:54:54.274Z,-0.10
2018-02-15T02:57:21.777Z,-0.10
2018-02-15T02:59:49.257Z,-0.10
2018-02-15T03:02:16.780Z,-0.10
2018-02-15T03:04:44.285Z,-0.10
2018-02-15T03:07:11.794Z,-0.05
2018-02-15T03:09:39.301Z,-0.08
2018-02-15T03:12:06.790Z,-0.07
2018-02-15T03:14:34.350Z,0.00
2018-02-15T03:17:01.842Z,-0.06
2018-02-15T03:19:29.328Z,0.02
2018-02-15T03:21:56.830Z,0.03
2018-02-15T03:24:24.328Z,0.06
2018-02-15T03:26:51.811Z,0.01
2018-02-15T03:29:19.303Z,-0.05
2018-02-15T03:31:46.792Z,-0.02
2018-02-15T03:34:14.284Z,-0.06
2018-02-15T03:36:41.783Z,-0.06
2018-02-15T03:39:09.284Z,-0.06
2018-02-15T03:41:36.774Z,-0.07
2018-02-15T03:44:04.276Z,-0.12
2018-02-15T03:46:31.768Z,-0.08
2018-02-15T03:48:59.295Z,-0.11
2018-02-15T03:51:26.815Z,-0.06
2018-02-15T03:53:54.315Z,-0.14
2018-02-15T03:56:21.816Z,-0.12
2018-02-15T03:58:49.317Z,-0.12
2018-02-15T04:01:16.809Z,-0.14
2018-02-15T04:03:44.329Z,-0.14
2018-02-15T04:06:11.824Z,-0.15
2018-02-15T04:08:39.301Z,-0.12
2018-02-15T04:11:06.825Z,-0.10
2018-02-15T04:13:34.317Z,-0.09
2018-02-15T04:16:01.831Z,-0.11
2018-02-15T04:18:29.301Z,-0.12
2018-02-15T04:20:56.793Z,-0.12
2018-02-15T04:23:24.306Z,-0.10
2018-02-15T04:25:51.781Z,-0.13
2018-02-15T04:28:19.274Z,-0.10
2018-02-15T04:30:46.776Z,-0.09
2018-02-15T04:33:14.325Z,-0.08
2018-02-15T04:35:41.808Z,-0.06
2018-02-15T04:38:09.312Z,-0.08
2018-02-15T04:40:36.812Z,-0.07
2018-02-15T04:43:04.300Z,-0.10
2018-02-15T04:45:31.789Z,-0.09
2018-02-15T04:47:59.349Z,-0.08
2018-02-15T04:50:26.818Z,-0.06
2018-02-15T04:52:54.305Z,-0.04
2018-02-15T04:55:21.800Z,-0.03
2018-02-15T04:57:49.344Z,-0.04
2018-02-15T05:00:16.866Z,-0.04
2018-02-15T05:02:44.364Z,-0.06
2018-02-15T05:05:11.884Z,-0.03
2018-02-15T05:07:39.361Z,-0.01
2018-02-15T05:10:06.864Z,-0.03
2018-02-15T05:12:34.336Z,0.05
2018-02-15T05:15:01.860Z,0.01
2018-02-15T05:17:29.367Z,0.02
2018-02-15T05:19:56.835Z,0.01
2018-02-15T05:22:24.351Z,0.05
2018-02-15T05:24:51.830Z,0.08
2018-02-15T05:27:19.332Z,0.06
2018-02-15T05:29:48.396Z,0.08
2018-02-15T05:32:15.857Z,0.11
2018-02-15T05:34:43.338Z,0.11
2018-02-15T05:37:10.813Z,0.11
2018-02-15T05:39:38.309Z,0.22
2018-02-15T05:42:05.793Z,0.38
2018-02-15T05:44:33.262Z,0.25
2018-02-15T05:47:00.726Z,0.20
2018-02-15T05:49:28.232Z,0.18
2018-02-15T05:51:55.708Z,0.19
2018-02-15T05:54:23.194Z,0.16
2018-02-15T05:56:50.692Z,0.16
2018-02-15T05:59:18.680Z,0.16
2018-02-15T06:01:46.184Z,0.13
2018-02-15T06:04:13.689Z,0.12
2018-02-15T06:06:41.202Z,0.10
2018-02-15T06:09:08.737Z,0.09
2018-02-15T06:11:36.272Z,0.05
2018-02-15T06:14:03.788Z,0.06
2018-02-15T06:16:31.312Z,0.04
2018-02-15T06:18:58.815Z,0.04
2018-02-15T06:21:26.324Z,0.04
2018-02-15T06:23:53.846Z,0.04
2018-02-15T06:26:21.347Z,0.05
2018-02-15T06:28:48.876Z,0.05
2018-02-15T06:31:16.382Z,0.07
2018-02-15T06:33:43.949Z,0.12
2018-02-15T06:36:11.489Z,0.14
2018-02-15T06:38:39.030Z,0.14
2018-02-15T06:41:06.534Z,0.21
2018-02-15T06:43:34.069Z,0.24
2018-02-15T06:46:01.605Z,0.22
2018-02-15T06:48:29.197Z,0.24
2018-02-15T06:50:56.731Z,0.26
2018-02-15T06:53:24.249Z,0.28
2018-02-15T06:55:51.758Z,0.29
2018-02-15T06:58:19.265Z,0.33
2018-02-15T07:00:46.801Z,0.32
2018-02-15T07:03:14.332Z,0.32
2018-02-15T07:05:41.855Z,0.37
2018-02-15T07:08:09.374Z,0.39
2018-02-15T07:10:36.910Z,0.42
2018-02-15T07:13:05.529Z,0.42
2018-02-15T07:15:33.038Z,0.47
2018-02-15T07:18:00.573Z,0.49
2018-02-15T07:20:28.094Z,0.49
2018-02-15T07:22:55.606Z,0.55
2018-02-15T07:25:23.128Z,0.58
2018-02-15T07:27:50.781Z,0.57
2018-02-15T07:30:18.305Z,0.63
2018-02-15T07:32:45.819Z,0.57
2018-02-15T07:35:13.361Z,0.57
2018-02-15T07:37:40.940Z,0.57
2018-02-15T07:40:08.468Z,0.58
2018-02-15T07:42:36.015Z,0.56
2018-02-15T07:45:04.022Z,0.56
2018-02-15T07:47:31.522Z,0.57
2018-02-15T07:49:59.048Z,0.59
2018-02-15T07:52:27.128Z,0.61
2018-02-15T07:54:54.635Z,0.65
2018-02-15T07:57:22.170Z,0.65
2018-02-15T07:59:49.711Z,0.69
2018-02-15T08:02:17.234Z,0.66
2018-02-15T08:04:44.761Z,0.71
2018-02-15T08:07:12.274Z,0.75
2018-02-15T08:09:39.766Z,0.70
2018-02-15T08:12:07.292Z,0.66
2018-02-15T08:14:34.853Z,0.74
2018-02-15T08:17:02.364Z,0.80
2018-02-15T08:19:29.889Z,0.74
2018-02-15T08:21:57.443Z,0.75
2018-02-15T08:24:25.080Z,0.78
2018-02-15T08:26:52.600Z,0.73
2018-02-15T08:29:20.115Z,0.71
2018-02-15T08:31:47.660Z,0.81
2018-02-15T08:34:15.201Z,0.88
2018-02-15T08:36:42.734Z,0.85
2018-02-15T08:39:10.271Z,0.79
2018-02-15T08:41:37.797Z,0.87
2018-02-15T08:44:05.320Z,0.81
2018-02-15T08:46:33.018Z,0.80
2018-02-15T08:49:00.526Z,0.78
2018-02-15T08:51:28.082Z,0.81
2018-02-15T08:53:55.985Z,0.78
2018-02-15T08:56:23.511Z,0.77
2018-02-15T08:58:51.057Z,0.82
2018-02-15T09:01:18.588Z,0.81
2018-02-15T09:03:46.100Z,0.89
2018-02-15T09:06:13.637Z,0.82
2018-02-15T09:08:41.167Z,0.90
2018-02-15T09:11:08.736Z,0.93
2018-02-15T09:13:36.295Z,0.89
2018-02-15T09:16:03.808Z,0.93
2018-02-15T09:18:31.374Z,1.01
2018-02-15T09:20:58.875Z,0.99
2018-02-15T09:23:26.416Z,1.01
2018-02-15T09:25:53.927Z,1.08
2018-02-15T09:28:21.470Z,1.16
2018-02-15T09:30:48.996Z,1.08
2018-02-15T09:33:16.751Z,1.17
2018-02-15T09:35:44.283Z,1.18
2018-02-15T09:38:11.819Z,1.16
2018-02-15T09:40:39.349Z,1.22
2018-02-15T09:43:06.886Z,1.17
2018-02-15T09:45:34.453Z,1.17
2018-02-15T09:48:01.989Z,1.19
2018-02-15T09:50:29.489Z,1.24
2018-02-15T09:52:57.026Z,1.19
2018-02-15T09:55:24.536Z,1.23
2018-02-15T09:57:52.040Z,1.31
2018-02-15T10:00:19.572Z,1.28
2018-02-15T10:02:47.093Z,1.35
2018-02-15T10:05:14.654Z,1.35
2018-02-15T10:07:42.162Z,1.33
2018-02-15T10:10:09.669Z,1.28
2018-02-15T10:12:37.197Z,1.27
2018-02-15T10:15:05.461Z,1.40
2018-02-15T10:17:32.990Z,1.43
2018-02-15T10:20:00.526Z,1.42
2018-02-15T10:22:28.032Z,1.43
2018-02-15T10:24:55.534Z,1.50
2018-02-15T10:27:23.061Z,1.53
2018-02-15T10:29:50.588Z,1.54
2018-02-15T10:32:18.114Z,1.60
2018-02-15T10:34:45.622Z,1.58
2018-02-15T10:37:14.381Z,1.65
2018-02-15T10:39:41.887Z,1.71
2018-02-15T10:42:10.013Z,1.74
2018-02-15T10:44:37.519Z,1.84
2018-02-15T10:47:05.047Z,1.80
2018-02-15T10:49:32.594Z,1.85
2018-02-15T10:52:00.142Z,1.91
2018-02-15T10:54:27.726Z,1.93
2018-02-15T10:56:55.273Z,1.99
2018-02-15T10:59:22.833Z,2.02
2018-02-15T11:01:55.965Z,1.97
2018-02-15T11:04:29.075Z,2.00
2018-02-15T11:06:56.583Z,2.01
2018-02-15T11:09:24.086Z,2.05
2018-02-15T11:11:51.605Z,2.07
2018-02-15T11:14:19.107Z,2.14
2018-02-15T11:16:46.639Z,2.17
2018-02-15T11:19:14.148Z,2.23
2018-02-15T11:21:41.676Z,2.24
2018-02-15T11:24:09.679Z,2.33
2018-02-15T11:26:37.190Z,2.35
2018-02-15T11:29:04.738Z,2.37
2018-02-15T11:31:32.252Z,2.42
2018-02-15T11:33:59.766Z,2.43
2018-02-15T11:36:27.313Z,2.47
2018-02-15T11:38:54.860Z,2.52
2018-02-15T11:41:22.405Z,2.57
2018-02-15T11:43:49.906Z,2.57
2018-02-15T11:46:17.453Z,2.66
2018-02-15T11:48:45.117Z,2.70
2018-02-15T11:51:12.780Z,2.67
2018-02-15T11:53:40.443Z,2.69
2018-02-15T11:56:08.013Z,2.66
2018-02-15T11:58:35.534Z,2.68
2018-02-15T12:01:03.090Z,2.62
2018-02-15T12:03:30.649Z,2.69
2018-02-15T12:05:58.240Z,2.76
2018-02-15T12:08:25.799Z,2.72
2018-02-15T12:10:53.313Z,2.76
2018-02-15T12:13:20.889Z,2.79
2018-02-15T12:15:48.417Z,2.83
2018-02-15T12:18:16.026Z,2.82
2018-02-15T12:20:44.795Z,2.90
2018-02-15T12:23:12.600Z,2.90
2018-02-15T12:25:40.176Z,2.86
2018-02-15T12:28:07.687Z,2.75
2018-02-15T12:30:35.265Z,2.72
2018-02-15T12:33:02.795Z,2.75
2018-02-15T12:35:30.322Z,2.74
2018-02-15T12:37:57.864Z,2.68
2018-02-15T12:40:25.693Z,2.76
2018-02-15T12:42:53.228Z,2.69
2018-02-15T12:45:20.774Z,2.69
2018-02-15T12:47:48.312Z,2.71
2018-02-15T12:50:15.843Z,2.67
2018-02-15T12:52:43.358Z,2.60
2018-02-15T12:55:10.895Z,2.60
2018-02-15T12:57:38.418Z,2.53
2018-02-15T13:00:05.967Z,2.48
2018-02-15T13:02:33.507Z,2.51
2018-02-15T13:05:01.082Z,2.48
2018-02-15T13:07:28.728Z,2.49
2018-02-15T13:09:56.258Z,2.35
2018-02-15T13:12:35.461Z,2.24
2018-02-15T13:15:03.054Z,2.17
2018-02-15T13:17:30.556Z,2.14
2018-02-15T13:20:18.780Z,2.21
2018-02-15T13:22:49.169Z,2.19
2018-02-15T13:25:16.680Z,2.15
2018-02-15T13:27:55.863Z,2.17
2018-02-15T13:30:23.362Z,2.11
2018-02-15T13:32:50.879Z,2.14
2018-02-15T13:35:18.408Z,2.07
2018-02-15T13:37:45.938Z,1.98
2018-02-15T13:40:13.456Z,1.96
2018-02-15T13:42:40.979Z,1.89
2018-02-15T13:45:08.501Z,1.84
2018-02-15T13:47:36.029Z,1.78
2018-02-15T13:50:03.543Z,1.68
2018-02-15T13:52:32.378Z,1.65
2018-02-15T13:55:00.749Z,1.62
2018-02-15T13:57:28.289Z,1.56
2018-02-15T13:59:55.824Z,1.50
2018-02-15T14:02:23.371Z,1.46
2018-02-15T14:04:50.901Z,1.41
2018-02-15T14:07:18.415Z,1.42
2018-02-15T14:09:45.951Z,1.33
2018-02-15T14:12:13.664Z,1.40
2018-02-15T14:14:41.186Z,1.37
2018-02-15T14:17:08.717Z,1.35
2018-02-15T14:19:36.246Z,1.32
2018-02-15T14:22:03.755Z,1.31
2018-02-15T14:24:31.470Z,1.36
2018-02-15T14:26:59.019Z,1.31
2018-02-15T14:29:26.576Z,1.32
2018-02-15T14:31:54.093Z,1.31
2018-02-15T14:34:21.663Z,1.30
2018-02-15T14:36:49.238Z,1.31
2018-02-15T14:39:16.787Z,1.34
2018-02-15T14:41:44.297Z,1.29
2018-02-15T14:44:11.857Z,1.28
2018-02-15T14:46:39.392Z,1.27
2018-02-15T14:49:06.912Z,1.31
2018-02-15T14:51:34.455Z,1.25
2018-02-15T14:54:01.981Z,1.26
2018-02-15T14:56:29.492Z,1.25
2018-02-15T14:58:56.995Z,1.23
2018-02-15T15:01:24.536Z,1.25
2018-02-15T15:03:52.066Z,1.18
2018-02-15T15:06:19.573Z,1.18
2018-02-15T15:08:47.117Z,1.19
2018-02-15T15:11:14.639Z,1.18
2018-02-15T15:13:42.157Z,1.21
2018-02-15T15:16:09.691Z,1.18
2018-02-15T15:18:37.252Z,1.15
2018-02-15T15:21:05.668Z,1.18
2018-02-15T15:23:33.208Z,1.19
2018-02-15T15:26:00.716Z,1.19
2018-02-15T15:28:29.200Z,1.19
2018-02-15T15:30:56.720Z,1.22
2018-02-15T15:33:24.262Z,1.24
2018-02-15T15:35:51.810Z,1.22
2018-02-15T15:38:19.424Z,1.25
2018-02-15T15:40:47.182Z,1.27
2018-02-15T15:43:14.858Z,1.27
2018-02-15T15:45:42.397Z,1.28
2018-02-15T15:48:09.947Z,1.27
2018-02-15T15:50:37.485Z,1.29
2018-02-15T15:53:05.022Z,1.35
2018-02-15T15:55:32.550Z,1.35
2018-02-15T15:58:00.114Z,1.33
2018-02-15T16:00:27.674Z,1.36
2018-02-15T16:02:55.226Z,1.37
2018-02-15T16:05:22.749Z,1.35
2018-02-15T16:07:50.293Z,1.41
2018-02-15T16:10:17.831Z,1.35
2018-02-15T16:12:45.363Z,1.39
2018-02-15T16:15:12.875Z,1.39
2018-02-15T16:17:40.417Z,1.39
2018-02-15T16:20:07.952Z,1.41
2018-02-15T16:22:35.489Z,1.43
2018-02-15T16:25:03.072Z,1.38
2018-02-15T16:27:30.597Z,1.40
2018-02-15T16:29:58.121Z,1.43
2018-02-15T16:32:25.654Z,1.41
2018-02-15T16:34:53.195Z,1.43
2018-02-15T16:37:20.733Z,1.47
2018-02-15T16:39:48.260Z,1.44
2018-02-15T16:42:15.808Z,1.46
2018-02-15T16:44:43.344Z,1.43
2018-02-15T16:47:10.857Z,1.51
2018-02-15T16:49:38.402Z,1.53
2018-02-15T16:52:05.922Z,1.52
2018-02-15T16:54:33.461Z,1.47
2018-02-15T16:57:00.978Z,1.48
2018-02-15T16:59:28.525Z,1.48
2018-02-15T17:01:56.074Z,1.45
2018-02-15T17:04:23.601Z,1.40
2018-02-15T17:06:51.118Z,1.44
2018-02-15T17:09:18.648Z,1.42
2018-02-15T17:11:46.175Z,1.41
2018-02-15T17:14:13.679Z,1.44
2018-02-15T17:16:41.306Z,1.51
2018-02-15T17:19:08.861Z,1.49
2018-02-15T17:21:36.385Z,1.45
2018-02-15T17:24:03.950Z,1.48
2018-02-15T17:26:31.570Z,1.45
2018-02-15T17:28:59.112Z,1.51
2018-02-15T17:31:26.651Z,1.46
2018-02-15T17:33:54.232Z,1.45
2018-02-15T17:36:21.806Z,1.46
2018-02-15T17:38:49.347Z,1.49
2018-02-15T17:41:16.877Z,1.43
2018-02-15T17:43:44.413Z,1.49
2018-02-15T17:46:11.948Z,1.47
2018-02-15T17:48:39.475Z,1.48
2018-02-15T17:51:06.999Z,1.52
2018-02-15T17:53:36.501Z,1.53
2018-02-15T17:56:04.055Z,1.59
2018-02-15T17:58:31.575Z,1.60
2018-02-15T18:00:59.120Z,1.64
2018-02-15T18:03:26.694Z,1.63
2018-02-15T18:05:54.293Z,1.65
2018-02-15T18:08:21.921Z,1.67
2018-02-15T18:10:49.451Z,1.64
2018-02-15T18:13:16.980Z,1.63
2018-02-15T18:15:44.496Z,1.67
2018-02-15T18:18:12.027Z,1.68
2018-02-15T18:20:39.534Z,1.69
2018-02-15T18:23:07.061Z,1.70
2018-02-15T18:25:34.567Z,1.71
2018-02-15T18:28:02.101Z,1.74
2018-02-15T18:30:30.883Z,1.77
2018-02-15T18:32:58.423Z,1.81
2018-02-15T18:35:26.007Z,1.80
2018-02-15T18:37:53.553Z,1.81
2018-02-15T18:40:21.107Z,1.83
2018-02-15T18:42:48.750Z,1.89
2018-02-15T18:45:16.422Z,1.96
2018-02-15T18:47:43.981Z,1.98
2018-02-15T18:50:11.540Z,2.05
2018-02-15T18:52:39.073Z,2.13
2018-02-15T18:55:06.605Z,2.15
2018-02-15T18:57:34.122Z,2.23
2018-02-15T19:00:01.660Z,2.45
2018-02-15T19:02:29.200Z,2.58
2018-02-15T19:04:56.740Z,2.63
2018-02-15T19:07:24.306Z,2.75
2018-02-15T19:09:51.814Z,2.82
2018-02-15T19:12:19.338Z,2.89
2018-02-15T19:14:46.885Z,2.96
2018-02-15T19:17:14.404Z,3.04
2018-02-15T19:19:41.929Z,3.10
2018-02-15T19:22:09.464Z,3.11
2018-02-15T19:24:37.014Z,3.13
2018-02-15T19:27:04.576Z,3.15
2018-02-15T19:29:32.165Z,3.16
2018-02-15T19:31:59.709Z,3.18
2018-02-15T19:34:27.239Z,3.20
2018-02-15T19:36:54.801Z,3.22
2018-02-15T19:39:22.326Z,3.24
2018-02-15T19:41:49.874Z,3.25
2018-02-15T19:44:17.383Z,3.27
2018-02-15T19:46:44.933Z,3.24
2018-02-15T19:49:12.461Z,3.25
2018-02-15T19:51:39.989Z,3.25
2018-02-15T19:54:07.550Z,3.26
2018-02-15T19:56:35.077Z,3.27
2018-02-15T19:59:02.591Z,3.30
2018-02-15T20:01:30.130Z,3.30
2018-02-15T20:03:57.657Z,3.33
2018-02-15T20:06:25.245Z,3.33
2018-02-15T20:08:52.807Z,3.36
2018-02-15T20:11:20.337Z,3.36
2018-02-15T20:13:47.894Z,3.33
2018-02-15T20:16:15.411Z,3.34
2018-02-15T20:18:42.941Z,3.42
2018-02-15T20:21:10.464Z,3.37
2018-02-15T20:23:38.001Z,3.39
2018-02-15T20:26:11.037Z,3.44
2018-02-15T20:28:38.614Z,3.42
2018-02-15T20:31:06.129Z,3.47
2018-02-15T20:33:33.647Z,3.40
2018-02-15T20:36:01.217Z,3.41
2018-02-15T20:38:34.398Z,3.46
2018-02-15T20:41:01.930Z,3.46
2018-02-15T20:43:29.963Z,3.50
2018-02-15T20:45:57.516Z,3.47
2018-02-15T20:48:25.042Z,3.53
2018-02-15T20:50:58.106Z,3.48
2018-02-15T20:53:31.183Z,3.54
2018-02-15T20:55:58.701Z,3.54
2018-02-15T20:58:26.226Z,3.53
2018-02-15T21:00:53.747Z,3.56
2018-02-15T21:03:21.289Z,3.54
2018-02-15T21:05:48.809Z,3.52
2018-02-15T21:08:16.354Z,3.45
2018-02-15T21:10:44.768Z,3.48
2018-02-15T21:13:12.298Z,3.46
2018-02-15T21:15:39.814Z,3.43
2018-02-15T21:18:07.330Z,3.40
2018-02-15T21:20:34.911Z,3.44
2018-02-15T21:23:02.476Z,3.42
2018-02-15T21:25:30.042Z,3.41
2018-02-15T21:27:57.563Z,3.46
2018-02-15T21:30:25.172Z,3.49
2018-02-15T21:32:52.705Z,3.50
2018-02-15T21:35:20.237Z,3.50
2018-02-15T21:37:47.770Z,3.48
2018-02-15T21:40:15.300Z,3.52
2018-02-15T21:42:42.873Z,3.54
2018-02-15T21:45:10.397Z,3.52
2018-02-15T21:47:37.914Z,3.48
2018-02-15T21:50:05.468Z,3.48
2018-02-15T21:52:33.001Z,3.53
2018-02-15T21:55:00.562Z,3.53
2018-02-15T21:57:28.092Z,3.53
2018-02-15T21:59:55.633Z,3.45
2018-02-15T22:02:23.155Z,3.41
2018-02-15T22:04:50.667Z,3.39
2018-02-15T22:07:18.182Z,3.33
2018-02-15T22:09:45.722Z,3.20
2018-02-15T22:12:13.286Z,3.22
2018-02-15T22:14:40.823Z,3.15
2018-02-15T22:17:08.373Z,3.07
2018-02-15T22:19:35.906Z,3.02
2018-02-15T22:22:03.426Z,3.04
2018-02-15T22:24:30.914Z,3.08
2018-02-15T22:26:58.431Z,3.05
2018-02-15T22:29:25.961Z,2.99
2018-02-15T22:31:53.452Z,3.04
2018-02-15T22:34:20.980Z,2.92
2018-02-15T22:36:48.474Z,2.97
2018-02-15T22:39:15.985Z,2.98
2018-02-15T22:41:43.472Z,2.95
2018-02-15T22:44:10.951Z,2.91
2018-02-15T22:46:38.448Z,2.84
2018-02-15T22:49:05.930Z,2.79
2018-02-15T22:51:33.427Z,2.74
2018-02-15T22:54:00.926Z,2.72
2018-02-15T22:56:28.412Z,2.72
2018-02-15T22:58:55.988Z,2.71
2018-02-15T23:01:23.466Z,2.68
2018-02-15T23:03:50.982Z,2.57
2018-02-15T23:06:18.502Z,2.53
2018-02-15T23:08:45.978Z,2.53
2018-02-15T23:11:13.471Z,2.54
2018-02-15T23:13:40.968Z,2.49
2018-02-15T23:16:08.469Z,2.48
2018-02-15T23:18:36.005Z,2.49
2018-02-15T23:21:03.506Z,2.50
2018-02-15T23:23:31.049Z,2.45
2018-02-15T23:25:58.531Z,2.40
2018-02-15T23:28:26.034Z,2.39
2018-02-15T23:30:53.548Z,2.41
2018-02-15T23:33:21.059Z,2.41
2018-02-15T23:35:48.572Z,2.40
2018-02-15T23:38:16.061Z,2.36
2018-02-15T23:40:43.574Z,2.37
2018-02-15T23:43:11.092Z,2.34
2018-02-15T23:45:38.587Z,2.34
2018-02-15T23:48:06.104Z,2.35
2018-02-15T23:50:33.605Z,2.30
2018-02-15T23:53:01.135Z,2.31
2018-02-15T23:55:28.641Z,2.37
2018-02-15T23:57:56.140Z,2.39
